sensor_id;sensor_type;location;lat;lon;timestamp;pressure;altitude;pressure_sealevel;temperature;humidity
65897;BME280;52677;50.898;10.854;2023-01-31T00:01:04;98885.94;;;1.45;100.00
65897;BME280;52677;50.898;10.854;2023-01-31T00:03:04;98867.66;;;1.45;100.00
65897;BME280;52677;50.898;10.854;2023-01-31T00:05:05;98870.56;;;1.49;100.00
65897;BME280;52677;50.898;10.854;2023-01-31T00:07:05;98874.00;;;1.54;100.00
65897;BME280;52677;50.898;10.854;2023-01-31T00:09:08;98884.00;;;1.59;100.00
65897;BME280;52677;50.898;10.854;2023-01-31T00:11:09;98888.63;;;1.58;100.00
65897;BME280;52677;50.898;10.854;2023-01-31T00:13:09;98894.28;;;1.62;100.00
65897;BME280;52677;50.898;10.854;2023-01-31T00:15:10;98895.63;;;1.51;100.00
65897;BME280;52677;50.898;10.854;2023-01-31T00:17:12;98904.31;;;1.53;100.00
65897;BME280;52677;50.898;10.854;2023-01-31T00:19:12;98909.47;;;1.40;100.00
65897;BME280;52677;50.898;10.854;2023-01-31T00:21:18;98908.31;;;1.33;100.00
65897;BME280;52677;50.898;10.854;2023-01-31T00:23:19;98910.03;;;1.29;100.00
65897;BME280;52677;50.898;10.854;2023-01-31T00:25:19;98905.50;;;1.24;100.00
65897;BME280;52677;50.898;10.854;2023-01-31T00:27:20;98913.06;;;1.13;100.00
65897;BME280;52677;50.898;10.854;2023-01-31T00:29:23;98901.19;;;1.09;100.00
65897;BME280;52677;50.898;10.854;2023-01-31T00:31:26;98898.56;;;1.04;100.00
65897;BME280;52677;50.898;10.854;2023-01-31T00:33:27;98905.75;;;1.00;100.00
65897;BME280;52677;50.898;10.854;2023-01-31T00:35:27;98906.94;;;1.08;100.00
65897;BME280;52677;50.898;10.854;2023-01-31T00:37:28;98899.78;;;0.98;100.00
65897;BME280;52677;50.898;10.854;2023-01-31T00:39:28;98902.81;;;0.97;100.00
65897;BME280;52677;50.898;10.854;2023-01-31T00:41:29;98904.63;;;1.01;100.00
65897;BME280;52677;50.898;10.854;2023-01-31T00:43:31;98900.78;;;1.02;100.00
65897;BME280;52677;50.898;10.854;2023-01-31T00:45:32;98907.03;;;1.03;100.00
65897;BME280;52677;50.898;10.854;2023-01-31T00:47:32;98906.13;;;1.07;100.00
65897;BME280;52677;50.898;10.854;2023-01-31T00:49:32;98902.19;;;1.13;100.00
65897;BME280;52677;50.898;10.854;2023-01-31T00:51:33;98902.66;;;1.16;100.00
65897;BME280;52677;50.898;10.854;2023-01-31T00:53:33;98908.13;;;1.16;100.00
65897;BME280;52677;50.898;10.854;2023-01-31T00:55:34;98907.84;;;1.17;100.00
65897;BME280;52677;50.898;10.854;2023-01-31T00:57:34;98910.56;;;1.17;100.00
65897;BME280;52677;50.898;10.854;2023-01-31T00:59:34;98895.91;;;1.13;100.00
65897;BME280;52677;50.898;10.854;2023-01-31T01:01:35;98910.25;;;1.19;100.00
65897;BME280;52677;50.898;10.854;2023-01-31T01:03:36;98907.84;;;1.17;100.00
65897;BME280;52677;50.898;10.854;2023-01-31T01:05:37;98900.56;;;1.26;100.00
65897;BME280;52677;50.898;10.854;2023-01-31T01:07:37;98904.38;;;1.25;100.00
65897;BME280;52677;50.898;10.854;2023-01-31T01:09:38;98909.59;;;1.35;100.00
65897;BME280;52677;50.898;10.854;2023-01-31T01:11:38;98914.34;;;1.30;100.00
65897;BME280;52677;50.898;10.854;2023-01-31T01:13:39;98908.22;;;1.24;100.00
65897;BME280;52677;50.898;10.854;2023-01-31T01:15:39;98914.91;;;1.18;100.00
65897;BME280;52677;50.898;10.854;2023-01-31T01:17:40;98924.88;;;1.23;100.00
65897;BME280;52677;50.898;10.854;2023-01-31T01:19:40;98917.31;;;1.20;100.00
65897;BME280;52677;50.898;10.854;2023-01-31T01:21:40;98915.78;;;1.27;100.00
65897;BME280;52677;50.898;10.854;2023-01-31T01:23:44;98929.91;;;1.29;100.00
65897;BME280;52677;50.898;10.854;2023-01-31T01:25:46;98934.75;;;1.32;100.00
65897;BME280;52677;50.898;10.854;2023-01-31T01:27:46;98937.78;;;1.31;100.00
65897;BME280;52677;50.898;10.854;2023-01-31T01:29:46;98944.34;;;1.30;100.00
65897;BME280;52677;50.898;10.854;2023-01-31T01:31:47;98929.59;;;1.31;100.00
65897;BME280;52677;50.898;10.854;2023-01-31T01:33:48;98921.41;;;1.31;100.00
65897;BME280;52677;50.898;10.854;2023-01-31T01:35:48;98929.59;;;1.31;100.00
65897;BME280;52677;50.898;10.854;2023-01-31T01:37:49;98929.59;;;1.31;100.00
65897;BME280;52677;50.898;10.854;2023-01-31T01:39:49;98920.94;;;1.29;100.00
65897;BME280;52677;50.898;10.854;2023-01-31T01:41:51;98922.44;;;1.35;100.00
65897;BME280;52677;50.898;10.854;2023-01-31T01:43:56;98903.53;;;1.38;100.00
65897;BME280;52677;50.898;10.854;2023-01-31T01:45:57;98908.38;;;1.42;100.00
65897;BME280;52677;50.898;10.854;2023-01-31T01:48:05;98910.00;;;1.43;100.00
65897;BME280;52677;50.898;10.854;2023-01-31T01:50:27;98924.94;;;1.45;100.00
65897;BME280;52677;50.898;10.854;2023-01-31T01:52:32;98924.13;;;1.45;100.00
65897;BME280;52677;50.898;10.854;2023-01-31T01:54:43;98928.06;;;1.38;100.00
65897;BME280;52677;50.898;10.854;2023-01-31T01:56:47;98932.22;;;1.36;100.00
65897;BME280;52677;50.898;10.854;2023-01-31T02:00:55;98945.47;;;1.29;100.00
65897;BME280;52677;50.898;10.854;2023-01-31T02:02:57;98962.94;;;1.28;100.00
65897;BME280;52677;50.898;10.854;2023-01-31T02:04:58;98960.84;;;1.25;100.00
65897;BME280;52677;50.898;10.854;2023-01-31T02:06:59;98968.38;;;1.28;100.00
65897;BME280;52677;50.898;10.854;2023-01-31T02:09:02;98962.53;;;1.21;100.00
65897;BME280;52677;50.898;10.854;2023-01-31T02:11:21;98960.63;;;1.07;100.00
65897;BME280;52677;50.898;10.854;2023-01-31T02:13:22;98956.91;;;1.03;100.00
65897;BME280;52677;50.898;10.854;2023-01-31T02:15:23;98962.75;;;0.97;100.00
65897;BME280;52677;50.898;10.854;2023-01-31T02:17:24;98958.50;;;0.91;100.00
65897;BME280;52677;50.898;10.854;2023-01-31T02:19:35;98965.69;;;0.87;100.00
65897;BME280;52677;50.898;10.854;2023-01-31T02:27:29;98967.69;;;0.67;100.00
65897;BME280;52677;50.898;10.854;2023-01-31T02:36:23;98981.84;;;0.83;100.00
65897;BME280;52677;50.898;10.854;2023-01-31T02:43:56;98991.41;;;0.80;100.00
65897;BME280;52677;50.898;10.854;2023-01-31T02:46:17;99004.13;;;0.85;100.00
65897;BME280;52677;50.898;10.854;2023-01-31T02:50:35;99006.75;;;0.90;100.00
65897;BME280;52677;50.898;10.854;2023-01-31T02:55:11;99009.78;;;1.02;100.00
65897;BME280;52677;50.898;10.854;2023-01-31T02:57:33;99018.38;;;1.09;100.00
65897;BME280;52677;50.898;10.854;2023-01-31T02:59:34;99007.06;;;1.16;100.00
65897;BME280;52677;50.898;10.854;2023-01-31T03:01:39;99015.75;;;1.18;100.00
65897;BME280;52677;50.898;10.854;2023-01-31T03:03:40;99004.53;;;1.20;100.00
65897;BME280;52677;50.898;10.854;2023-01-31T03:05:41;99005.03;;;1.22;100.00
65897;BME280;52677;50.898;10.854;2023-01-31T03:07:45;98999.19;;;1.28;100.00
65897;BME280;52677;50.898;10.854;2023-01-31T03:10:15;99005.94;;;1.31;100.00
65897;BME280;52677;50.898;10.854;2023-01-31T03:12:41;99005.63;;;1.32;100.00
65897;BME280;52677;50.898;10.854;2023-01-31T03:17:05;99000.28;;;1.27;100.00
65897;BME280;52677;50.898;10.854;2023-01-31T03:19:39;99019.69;;;1.26;100.00
65897;BME280;52677;50.898;10.854;2023-01-31T03:21:46;99023.53;;;1.25;100.00
65897;BME280;52677;50.898;10.854;2023-01-31T03:23:50;99010.19;;;1.23;100.00
65897;BME280;52677;50.898;10.854;2023-01-31T03:25:52;99017.06;;;1.21;100.00
65897;BME280;52677;50.898;10.854;2023-01-31T03:27:56;99013.03;;;1.18;100.00
65897;BME280;52677;50.898;10.854;2023-01-31T03:30:03;99012.22;;;1.18;100.00
65897;BME280;52677;50.898;10.854;2023-01-31T03:32:09;99020.59;;;1.21;100.00
65897;BME280;52677;50.898;10.854;2023-01-31T03:34:13;99017.06;;;1.21;100.00
65897;BME280;52677;50.898;10.854;2023-01-31T03:38:26;99012.72;;;1.20;100.00
65897;BME280;52677;50.898;10.854;2023-01-31T03:40:35;99023.44;;;1.16;100.00
65897;BME280;52677;50.898;10.854;2023-01-31T03:42:54;99025.13;;;1.12;100.00
65897;BME280;52677;50.898;10.854;2023-01-31T03:45:11;99025.53;;;1.19;100.00
65897;BME280;52677;50.898;10.854;2023-01-31T03:47:30;99030.06;;;1.24;100.00
65897;BME280;52677;50.898;10.854;2023-01-31T03:49:32;99029.06;;;1.20;100.00
65897;BME280;52677;50.898;10.854;2023-01-31T03:51:35;99006.47;;;1.19;100.00
65897;BME280;52677;50.898;10.854;2023-01-31T03:53:44;98998.19;;;1.10;100.00
65897;BME280;52677;50.898;10.854;2023-01-31T03:57:59;99006.25;;;1.02;100.00
65897;BME280;52677;50.898;10.854;2023-01-31T04:00:04;99001.13;;;1.00;100.00
65897;BME280;52677;50.898;10.854;2023-01-31T04:02:09;99006.84;;;0.99;100.00
65897;BME280;52677;50.898;10.854;2023-01-31T04:04:14;99013.09;;;0.99;100.00
65897;BME280;52677;50.898;10.854;2023-01-31T04:06:15;99013.09;;;0.99;100.00
65897;BME280;52677;50.898;10.854;2023-01-31T04:08:16;99019.06;;;1.01;100.00
65897;BME280;52677;50.898;10.854;2023-01-31T04:10:17;99014.44;;;1.02;100.00
65897;BME280;52677;50.898;10.854;2023-01-31T04:12:18;99015.13;;;1.07;100.00
65897;BME280;52677;50.898;10.854;2023-01-31T04:14:18;99006.66;;;1.09;100.00
65897;BME280;52677;50.898;10.854;2023-01-31T04:16:19;99013.03;;;1.18;100.00
65897;BME280;52677;50.898;10.854;2023-01-31T04:18:19;99007.88;;;1.17;100.00
65897;BME280;52677;50.898;10.854;2023-01-31T04:20:20;99006.53;;;1.14;100.00
65897;BME280;52677;50.898;10.854;2023-01-31T04:22:20;99019.78;;;1.21;100.00
65897;BME280;52677;50.898;10.854;2023-01-31T04:24:21;99015.75;;;1.18;100.00
65897;BME280;52677;50.898;10.854;2023-01-31T04:26:22;99010.69;;;1.11;100.00
65897;BME280;52677;50.898;10.854;2023-01-31T04:28:22;99007.25;;;1.06;100.00
65897;BME280;52677;50.898;10.854;2023-01-31T04:30:23;99015.72;;;1.04;100.00
65897;BME280;52677;50.898;10.854;2023-01-31T04:32:23;99009.28;;;1.00;100.00
65897;BME280;52677;50.898;10.854;2023-01-31T04:34:23;99013.09;;;0.99;100.00
65897;BME280;52677;50.898;10.854;2023-01-31T04:36:24;99012.09;;;0.95;100.00
65897;BME280;52677;50.898;10.854;2023-01-31T04:38:24;99015.94;;;0.94;100.00
65897;BME280;52677;50.898;10.854;2023-01-31T04:40:25;99015.81;;;0.99;100.00
65897;BME280;52677;50.898;10.854;2023-01-31T04:42:25;99016.13;;;0.98;100.00
65897;BME280;52677;50.898;10.854;2023-01-31T04:44:25;99021.56;;;0.98;100.00
65897;BME280;52677;50.898;10.854;2023-01-31T04:46:26;99015.94;;;0.94;100.00
65897;BME280;52677;50.898;10.854;2023-01-31T04:48:26;99010.56;;;0.89;100.00
65897;BME280;52677;50.898;10.854;2023-01-31T04:50:27;99008.38;;;0.91;100.00
65897;BME280;52677;50.898;10.854;2023-01-31T04:52:27;99003.13;;;0.95;100.00
65897;BME280;52677;50.898;10.854;2023-01-31T04:54:27;99002.31;;;0.94;100.00
65897;BME280;52677;50.898;10.854;2023-01-31T04:56:28;98999.91;;;0.93;100.00
65897;BME280;52677;50.898;10.854;2023-01-31T04:58:28;98996.88;;;0.94;100.00
65897;BME280;52677;50.898;10.854;2023-01-31T05:00:28;99003.50;;;0.88;100.00
65897;BME280;52677;50.898;10.854;2023-01-31T05:02:29;99006.25;;;0.88;100.00
65897;BME280;52677;50.898;10.854;2023-01-31T05:04:30;99003.31;;;0.84;100.00
65897;BME280;52677;50.898;10.854;2023-01-31T05:06:30;99013.81;;;0.91;100.00
65897;BME280;52677;50.898;10.854;2023-01-31T05:08:31;99009.78;;;0.89;100.00
65897;BME280;52677;50.898;10.854;2023-01-31T05:10:33;98999.47;;;0.86;100.00
65897;BME280;52677;50.898;10.854;2023-01-31T05:12:33;98997.22;;;0.74;100.00
65897;BME280;52677;50.898;10.854;2023-01-31T05:14:33;99007.63;;;0.72;100.00
65897;BME280;52677;50.898;10.854;2023-01-31T05:16:34;98992.41;;;0.71;100.00
65897;BME280;52677;50.898;10.854;2023-01-31T05:18:34;99001.69;;;0.70;100.00
65897;BME280;52677;50.898;10.854;2023-01-31T05:20:36;99003.69;;;0.64;100.00
65897;BME280;52677;50.898;10.854;2023-01-31T05:22:39;99005.09;;;0.62;100.00
65897;BME280;52677;50.898;10.854;2023-01-31T05:24:40;99012.22;;;0.57;100.00
65897;BME280;52677;50.898;10.854;2023-01-31T05:26:40;99005.97;;;0.57;100.00
65897;BME280;52677;50.898;10.854;2023-01-31T05:28:40;99004.59;;;0.60;100.00
65897;BME280;52677;50.898;10.854;2023-01-31T05:30:41;99009.94;;;0.65;100.00
65897;BME280;52677;50.898;10.854;2023-01-31T05:32:42;99000.25;;;0.72;100.00
65897;BME280;52677;50.898;10.854;2023-01-31T05:34:44;99005.13;;;0.75;100.00
65897;BME280;52677;50.898;10.854;2023-01-31T05:36:45;99001.47;;;0.80;100.00
65897;BME280;52677;50.898;10.854;2023-01-31T05:38:45;99007.44;;;0.82;100.00
65897;BME280;52677;50.898;10.854;2023-01-31T05:40:48;99011.19;;;0.86;100.00
65897;BME280;52677;50.898;10.854;2023-01-31T05:42:53;99008.47;;;0.86;100.00
65897;BME280;52677;50.898;10.854;2023-01-31T05:44:54;98998.78;;;0.94;100.00
65897;BME280;52677;50.898;10.854;2023-01-31T05:46:54;99013.94;;;1.00;100.00
65897;BME280;52677;50.898;10.854;2023-01-31T05:48:55;99010.19;;;0.96;100.00
65897;BME280;52677;50.898;10.854;2023-01-31T05:50:55;99014.94;;;1.04;100.00
65897;BME280;52677;50.898;10.854;2023-01-31T05:52:59;99016.34;;;1.01;100.00
65897;BME280;52677;50.898;10.854;2023-01-31T05:54:59;99014.13;;;1.03;100.00
65897;BME280;52677;50.898;10.854;2023-01-31T05:57:00;99000.50;;;1.03;100.00
65897;BME280;52677;50.898;10.854;2023-01-31T05:59:01;99006.75;;;1.04;100.00
65897;BME280;52677;50.898;10.854;2023-01-31T06:01:02;99013.63;;;1.01;100.00
65897;BME280;52677;50.898;10.854;2023-01-31T06:03:02;99016.94;;;0.98;100.00
65897;BME280;52677;50.898;10.854;2023-01-31T06:05:03;99019.47;;;0.95;100.00
65897;BME280;52677;50.898;10.854;2023-01-31T06:07:04;99020.34;;;0.90;100.00
65897;BME280;52677;50.898;10.854;2023-01-31T06:09:04;99027.22;;;0.88;100.00
65897;BME280;52677;50.898;10.854;2023-01-31T06:11:04;99027.03;;;0.98;100.00
65897;BME280;52677;50.898;10.854;2023-01-31T06:13:05;99028.38;;;1.00;100.00
65897;BME280;52677;50.898;10.854;2023-01-31T06:15:06;99026.44;;;1.01;100.00
65897;BME280;52677;50.898;10.854;2023-01-31T06:17:07;99037.44;;;1.09;100.00
65897;BME280;52677;50.898;10.854;2023-01-31T06:19:08;99040.47;;;1.08;100.00
65897;BME280;52677;50.898;10.854;2023-01-31T06:21:08;99038.44;;;1.13;100.00
65897;BME280;52677;50.898;10.854;2023-01-31T06:23:08;99042.38;;;1.07;100.00
65897;BME280;52677;50.898;10.854;2023-01-31T06:25:09;99051.97;;;1.05;100.00
65897;BME280;52677;50.898;10.854;2023-01-31T06:27:09;99048.94;;;1.06;100.00
65897;BME280;52677;50.898;10.854;2023-01-31T06:29:10;99047.00;;;1.07;100.00
65897;BME280;52677;50.898;10.854;2023-01-31T06:31:11;99045.94;;;1.08;100.00
65897;BME280;52677;50.898;10.854;2023-01-31T06:33:12;99046.31;;;1.15;100.00
65897;BME280;52677;50.898;10.854;2023-01-31T06:35:12;99039.25;;;1.14;100.00
65897;BME280;52677;50.898;10.854;2023-01-31T06:37:13;99043.31;;;1.17;100.00
65897;BME280;52677;50.898;10.854;2023-01-31T06:39:14;99044.69;;;1.14;100.00
65897;BME280;52677;50.898;10.854;2023-01-31T06:41:14;99042.28;;;1.12;100.00
65897;BME280;52677;50.898;10.854;2023-01-31T06:43:15;99039.06;;;1.10;100.00
65897;BME280;52677;50.898;10.854;2023-01-31T06:45:15;99049.47;;;1.08;100.00
65897;BME280;52677;50.898;10.854;2023-01-31T06:47:16;99039.16;;;1.05;100.00
65897;BME280;52677;50.898;10.854;2023-01-31T06:49:16;99045.53;;;1.01;100.00
65897;BME280;52677;50.898;10.854;2023-01-31T06:51:16;99044.50;;;0.97;100.00
65897;BME280;52677;50.898;10.854;2023-01-31T06:53:17;99041.25;;;0.95;100.00
65897;BME280;52677;50.898;10.854;2023-01-31T06:55:17;99047.13;;;1.02;100.00
65897;BME280;52677;50.898;10.854;2023-01-31T06:57:17;99047.94;;;1.02;100.00
65897;BME280;52677;50.898;10.854;2023-01-31T06:59:18;99050.53;;;1.07;100.00
65897;BME280;52677;50.898;10.854;2023-01-31T07:01:18;99050.34;;;1.04;100.00
65897;BME280;52677;50.898;10.854;2023-01-31T07:03:21;99054.38;;;1.06;100.00
65897;BME280;52677;50.898;10.854;2023-01-31T07:05:22;99049.56;;;1.03;100.00
65897;BME280;52677;50.898;10.854;2023-01-31T07:07:22;99051.25;;;1.13;100.00
65897;BME280;52677;50.898;10.854;2023-01-31T07:09:22;99054.50;;;1.15;100.00
65897;BME280;52677;50.898;10.854;2023-01-31T07:11:23;99057.75;;;1.17;100.00
65897;BME280;52677;50.898;10.854;2023-01-31T07:13:23;99062.88;;;1.19;100.00
65897;BME280;52677;50.898;10.854;2023-01-31T07:15:24;99060.75;;;1.16;100.00
65897;BME280;52677;50.898;10.854;2023-01-31T07:17:24;99064.00;;;1.18;100.00
65897;BME280;52677;50.898;10.854;2023-01-31T07:19:24;99056.72;;;1.13;100.00
65897;BME280;52677;50.898;10.854;2023-01-31T07:21:25;99054.59;;;1.10;100.00
65897;BME280;52677;50.898;10.854;2023-01-31T07:23:25;99051.56;;;1.11;100.00
65897;BME280;52677;50.898;10.854;2023-01-31T07:25:26;99053.19;;;1.12;100.00
65897;BME280;52677;50.898;10.854;2023-01-31T07:27:26;99054.38;;;1.06;100.00
65897;BME280;52677;50.898;10.854;2023-01-31T07:29:27;99052.19;;;1.08;100.00
65897;BME280;52677;50.898;10.854;2023-01-31T07:31:27;99055.28;;;1.16;100.00
65897;BME280;52677;50.898;10.854;2023-01-31T07:33:27;99049.25;;;1.19;100.00
65897;BME280;52677;50.898;10.854;2023-01-31T07:35:29;99048.16;;;1.20;100.00
65897;BME280;52677;50.898;10.854;2023-01-31T07:37:29;99048.16;;;1.20;100.00
65897;BME280;52677;50.898;10.854;2023-01-31T07:39:30;99045.41;;;1.20;100.00
65897;BME280;52677;50.898;10.854;2023-01-31T07:41:30;99040.88;;;1.15;100.00
65897;BME280;52677;50.898;10.854;2023-01-31T07:43:31;99034.59;;;1.15;100.00
65897;BME280;52677;50.898;10.854;2023-01-31T07:45:31;99047.13;;;1.16;100.00
65897;BME280;52677;50.898;10.854;2023-01-31T07:47:32;99053.09;;;1.18;100.00
65897;BME280;52677;50.898;10.854;2023-01-31T07:49:32;99045.50;;;1.15;100.00
65897;BME280;52677;50.898;10.854;2023-01-31T07:51:32;99051.25;;;1.13;100.00
65897;BME280;52677;50.898;10.854;2023-01-31T07:53:36;99059.06;;;1.20;100.00
65897;BME280;52677;50.898;10.854;2023-01-31T07:55:40;99056.03;;;1.21;100.00
65897;BME280;52677;50.898;10.854;2023-01-31T07:57:41;99051.19;;;1.18;100.00
65897;BME280;52677;50.898;10.854;2023-01-31T07:59:41;99049.56;;;1.17;100.00
65897;BME280;52677;50.898;10.854;2023-01-31T08:01:41;99050.38;;;1.18;100.00
65897;BME280;52677;50.898;10.854;2023-01-31T08:04:00;99044.41;;;1.16;100.00
65897;BME280;52677;50.898;10.854;2023-01-31T08:06:09;99030.78;;;1.16;100.00
65897;BME280;52677;50.898;10.854;2023-01-31T08:08:10;99034.03;;;1.18;100.00
65897;BME280;52677;50.898;10.854;2023-01-31T08:10:11;99038.84;;;1.21;100.00
65897;BME280;52677;50.898;10.854;2023-01-31T08:12:11;99039.06;;;1.24;100.00
65897;BME280;52677;50.898;10.854;2023-01-31T08:14:11;99038.78;;;1.26;100.00
65897;BME280;52677;50.898;10.854;2023-01-31T08:16:12;99035.13;;;1.30;100.00
65897;BME280;52677;50.898;10.854;2023-01-31T08:18:12;99033.00;;;1.41;100.00
65897;BME280;52677;50.898;10.854;2023-01-31T08:20:12;99035.44;;;1.43;100.00
65897;BME280;52677;50.898;10.854;2023-01-31T08:22:13;99037.53;;;1.46;100.00
65897;BME280;52677;50.898;10.854;2023-01-31T08:24:13;99024.47;;;1.56;100.00
65897;BME280;52677;50.898;10.854;2023-01-31T08:26:16;99018.94;;;1.61;100.00
65897;BME280;52677;50.898;10.854;2023-01-31T08:28:17;99025.69;;;1.64;100.00
65897;BME280;52677;50.898;10.854;2023-01-31T08:30:17;99025.91;;;1.67;100.00
65897;BME280;52677;50.898;10.854;2023-01-31T08:32:17;99016.28;;;1.70;100.00
65897;BME280;52677;50.898;10.854;2023-01-31T08:34:18;99022.38;;;1.67;100.00
65897;BME280;52677;50.898;10.854;2023-01-31T08:36:27;99018.03;;;1.66;100.00
65897;BME280;52677;50.898;10.854;2023-01-31T08:38:28;99013.25;;;1.72;100.00
65897;BME280;52677;50.898;10.854;2023-01-31T08:40:29;99007.38;;;1.78;100.00
65897;BME280;52677;50.898;10.854;2023-01-31T08:42:29;99014.56;;;1.74;100.00
65897;BME280;52677;50.898;10.854;2023-01-31T08:44:30;99015.16;;;1.71;100.00
65897;BME280;52677;50.898;10.854;2023-01-31T08:46:33;99007.47;;;1.73;100.00
65897;BME280;52677;50.898;10.854;2023-01-31T08:48:35;99018.91;;;1.75;100.00
65897;BME280;52677;50.898;10.854;2023-01-31T08:50:36;99010.41;;;1.77;100.00
65897;BME280;52677;50.898;10.854;2023-01-31T08:52:36;99002.09;;;1.82;100.00
65897;BME280;52677;50.898;10.854;2023-01-31T08:54:37;99001.88;;;1.92;100.00
65897;BME280;52677;50.898;10.854;2023-01-31T08:56:37;98994.03;;;1.90;100.00
65897;BME280;52677;50.898;10.854;2023-01-31T08:58:39;98992.59;;;1.93;100.00
65897;BME280;52677;50.898;10.854;2023-01-31T09:00:40;98988.25;;;1.92;100.00
65897;BME280;52677;50.898;10.854;2023-01-31T09:02:41;98997.56;;;1.91;100.00
65897;BME280;52677;50.898;10.854;2023-01-31T09:04:41;98991.28;;;1.90;100.00
65897;BME280;52677;50.898;10.854;2023-01-31T09:06:42;98987.63;;;1.95;100.00
65897;BME280;52677;50.898;10.854;2023-01-31T09:08:42;98980.72;;;1.97;100.00
65897;BME280;52677;50.898;10.854;2023-01-31T09:10:49;98979.31;;;2.00;100.00
65897;BME280;52677;50.898;10.854;2023-01-31T09:12:50;98975.22;;;2.11;100.00
65897;BME280;52677;50.898;10.854;2023-01-31T09:14:50;98967.41;;;2.18;100.00
65897;BME280;52677;50.898;10.854;2023-01-31T09:16:51;98969.81;;;2.20;100.00
65897;BME280;52677;50.898;10.854;2023-01-31T09:18:52;98976.09;;;2.20;100.00
65897;BME280;52677;50.898;10.854;2023-01-31T09:20:52;98970.31;;;2.22;100.00
65897;BME280;52677;50.898;10.854;2023-01-31T09:22:53;98984.28;;;2.20;100.00
65897;BME280;52677;50.898;10.854;2023-01-31T09:24:54;98982.66;;;2.19;100.00
65897;BME280;52677;50.898;10.854;2023-01-31T09:26:54;98967.78;;;2.25;100.00
65897;BME280;52677;50.898;10.854;2023-01-31T09:28:56;98966.16;;;2.24;100.00
65897;BME280;52677;50.898;10.854;2023-01-31T09:31:05;98958.25;;;2.23;100.00
65897;BME280;52677;50.898;10.854;2023-01-31T09:33:06;98958.91;;;2.20;100.00
65897;BME280;52677;50.898;10.854;2023-01-31T09:35:07;98978.00;;;2.20;100.00
65897;BME280;52677;50.898;10.854;2023-01-31T09:37:07;98973.34;;;2.20;100.00
65897;BME280;52677;50.898;10.854;2023-01-31T09:39:10;98965.00;;;2.17;100.00
65897;BME280;52677;50.898;10.854;2023-01-31T09:41:29;98961.94;;;2.18;100.00
65897;BME280;52677;50.898;10.854;2023-01-31T09:43:37;98956.00;;;2.16;100.00
65897;BME280;52677;50.898;10.854;2023-01-31T09:45:39;98954.06;;;2.17;100.00
65897;BME280;52677;50.898;10.854;2023-01-31T09:47:46;98937.06;;;2.20;100.00
65897;BME280;52677;50.898;10.854;2023-01-31T09:49:51;98944.50;;;2.28;100.00
65897;BME280;52677;50.898;10.854;2023-01-31T09:52:00;98942.88;;;2.27;100.00
65897;BME280;52677;50.898;10.854;2023-01-31T09:54:02;98950.28;;;2.27;100.00
65897;BME280;52677;50.898;10.854;2023-01-31T09:58:35;98935.19;;;2.29;100.00
65897;BME280;52677;50.898;10.854;2023-01-31T10:05:29;98925.91;;;2.39;100.00
65897;BME280;52677;50.898;10.854;2023-01-31T10:07:37;98925.91;;;2.39;100.00
65897;BME280;52677;50.898;10.854;2023-01-31T10:09:47;98931.25;;;2.44;100.00
65897;BME280;52677;50.898;10.854;2023-01-31T10:11:54;98929.66;;;2.43;100.00
65897;BME280;52677;50.898;10.854;2023-01-31T10:14:35;98920.22;;;2.49;100.00
65897;BME280;52677;50.898;10.854;2023-01-31T10:19:11;98919.25;;;2.53;100.00
65897;BME280;52677;50.898;10.854;2023-01-31T10:21:17;98920.06;;;2.54;100.00
65897;BME280;52677;50.898;10.854;2023-01-31T10:26:08;98915.59;;;2.58;100.00
65897;BME280;52677;50.898;10.854;2023-01-31T10:28:26;98919.44;;;2.57;100.00
65897;BME280;52677;50.898;10.854;2023-01-31T10:30:50;98912.84;;;2.58;100.00
65897;BME280;52677;50.898;10.854;2023-01-31T10:32:59;98904.78;;;2.53;100.00
65897;BME280;52677;50.898;10.854;2023-01-31T10:35:09;98898.03;;;2.50;100.00
65897;BME280;52677;50.898;10.854;2023-01-31T10:37:20;98900.63;;;2.56;100.00
65897;BME280;52677;50.898;10.854;2023-01-31T10:39:54;98885.34;;;2.54;100.00
65897;BME280;52677;50.898;10.854;2023-01-31T10:42:01;98887.16;;;2.59;100.00
65897;BME280;52677;50.898;10.854;2023-01-31T10:44:23;98879.75;;;2.60;100.00
65897;BME280;52677;50.898;10.854;2023-01-31T10:46:25;98881.69;;;2.59;100.00
65897;BME280;52677;50.898;10.854;2023-01-31T10:48:28;98878.00;;;2.64;100.00
65897;BME280;52677;50.898;10.854;2023-01-31T10:55:54;98873.88;;;2.75;100.00
65897;BME280;52677;50.898;10.854;2023-01-31T10:57:58;98867.72;;;2.69;100.00
65897;BME280;52677;50.898;10.854;2023-01-31T10:59:59;98853.75;;;2.71;100.00
65897;BME280;52677;50.898;10.854;2023-01-31T11:02:00;98850.53;;;2.69;100.00
65897;BME280;52677;50.898;10.854;2023-01-31T11:04:13;98859.06;;;2.67;100.00
65897;BME280;52677;50.898;10.854;2023-01-31T11:06:21;98848.75;;;2.64;100.00
65897;BME280;52677;50.898;10.854;2023-01-31T11:10:31;98836.06;;;2.68;100.00
65897;BME280;52677;50.898;10.854;2023-01-31T11:12:51;98845.72;;;2.66;100.00
65897;BME280;52677;50.898;10.854;2023-01-31T11:15:25;98844.25;;;2.60;100.00
65897;BME280;52677;50.898;10.854;2023-01-31T11:17:28;98841.03;;;2.58;100.00
65897;BME280;52677;50.898;10.854;2023-01-31T11:21:34;98827.84;;;2.60;100.00
65897;BME280;52677;50.898;10.854;2023-01-31T11:23:35;98833.97;;;2.57;100.00
65897;BME280;52677;50.898;10.854;2023-01-31T11:25:36;98837.50;;;2.57;100.00
65897;BME280;52677;50.898;10.854;2023-01-31T11:27:39;98833.63;;;2.58;100.00
65897;BME280;52677;50.898;10.854;2023-01-31T11:29:46;98825.78;;;2.57;100.00
65897;BME280;52677;50.898;10.854;2023-01-31T11:31:48;98819.19;;;2.58;100.00
65897;BME280;52677;50.898;10.854;2023-01-31T11:33:57;98815.66;;;2.57;100.00
65897;BME280;52677;50.898;10.854;2023-01-31T11:35:58;98813.03;;;2.52;100.00
65897;BME280;52677;50.898;10.854;2023-01-31T11:42:16;98797.13;;;2.45;100.00